.
WxDataArchive / Data Records for 2006-06-22
2006-06-21 June 2006 2006-06-23

Data Records for Thursday, 22 June 2006

Time	Temp	Chill	HIndex	Humid	Dewpt	 Wind 	HiWind	WindDir	Rain 	Barom 
-----	----	-----	------	-----	-----	------	------	-------	-----	----- 
00:00	69.8	69.8	69.8	93	67.7	0	0	---	0.00	29.874 
00:05	69.8	69.8	69.8	93	67.7	0	1	45	0.00	29.874 
00:10	69.8	69.8	69.8	93	67.7	0	0	---	0.00	29.874 
00:15	69.6	69.6	69.6	93	67.5	0	0	---	0.00	29.871 
00:20	69.6	69.6	69.6	93	67.5	0	0	---	0.00	29.871 
00:25	69.6	69.6	69.6	93	67.5	0	0	---	0.00	29.871 
00:30	69.6	69.6	69.6	93	67.5	0	0	---	0.00	29.879 
00:35	69.6	69.6	69.6	93	67.5	0	0	---	0.00	29.879 
00:40	69.6	69.6	69.6	93	67.5	0	0	---	0.00	29.879 
00:45	69.6	69.6	69.6	93	67.5	0	0	---	0.00	29.878 
00:50	69.6	69.6	69.6	93	67.5	0	0	---	0.00	29.878 
00:55	69.6	69.6	69.6	93	67.5	0	0	---	0.00	29.878 
01:00	69.6	69.6	69.6	93	67.5	0	0	---	0.00	29.878 
01:05	69.6	69.6	69.6	93	67.5	0	0	---	0.00	29.878 
01:10	69.6	69.6	69.6	93	67.5	0	0	---	0.00	29.878 
01:15	69.6	69.6	69.6	94	67.8	0	0	---	0.00	29.879 
01:20	69.6	69.6	69.6	94	67.8	0	0	---	0.00	29.879 
01:25	69.6	69.6	69.6	94	67.8	0	0	---	0.00	29.879 
01:30	69.6	69.6	69.6	94	67.8	0	0	---	0.00	29.887 
01:35	69.6	69.6	69.6	94	67.8	0	0	---	0.00	29.887 
01:40	69.6	69.6	69.6	94	67.8	0	0	---	0.00	29.887 
01:45	69.6	69.6	69.6	94	67.8	0	0	---	0.00	29.892 
01:50	69.6	69.6	69.6	94	67.8	0	0	---	0.00	29.892 
01:55	69.6	69.6	69.6	94	67.8	0	0	---	0.00	29.892 
02:00	69.8	69.8	69.8	94	68.0	0	0	---	0.00	29.899 
02:05	69.8	69.8	69.8	94	68.0	0	0	---	0.00	29.899 
02:10	69.9	69.9	69.9	94	68.1	0	0	---	0.00	29.899 
02:15	69.9	69.9	69.9	94	68.1	0	0	---	0.00	29.898 
02:20	69.9	69.9	69.9	94	68.1	0	0	---	0.00	29.898 
02:25	70.1	70.1	70.1	95	68.6	0	0	---	0.00	29.898 
02:30	70.3	70.3	70.3	95	68.8	0	0	---	0.00	29.900 
02:35	70.3	70.3	70.3	95	68.8	0	0	---	0.00	29.900 
02:40	70.4	70.4	70.4	95	68.9	0	0	---	0.00	29.900 
02:45	70.4	70.4	70.4	95	68.9	0	0	---	0.00	29.900 
02:50	70.4	70.4	70.4	95	68.9	0	0	---	0.00	29.900 
02:55	70.4	70.4	70.4	95	68.9	0	1	45	0.00	29.900 
03:00	70.4	70.4	70.4	94	68.6	0	0	---	0.00	29.899 
03:05	70.4	70.4	70.4	94	68.6	0	0	---	0.00	29.899 
03:10	70.4	70.4	70.4	94	68.6	0	0	---	0.00	29.899 
03:15	70.4	70.4	70.4	94	68.6	0	0	---	0.00	29.900 
03:20	70.4	70.4	70.4	94	68.6	0	0	---	0.00	29.900 
03:25	70.4	70.4	70.4	94	68.6	0	0	---	0.00	29.900 
03:30	70.6	70.6	70.6	94	68.8	0	0	---	0.00	29.899 
03:35	70.8	70.8	70.8	95	69.3	0	1	45	0.00	29.899 
03:40	71.5	71.5	71.5	95	70.0	0	2	45	0.00	29.899 
03:45	71.8	71.8	71.8	95	70.3	0	1	45	0.00	29.899 
03:50	72.3	72.3	72.3	95	70.8	0	2	22	0.00	29.899 
03:55	72.7	72.7	72.7	94	70.9	0	2	338	0.00	29.899 
04:00	73.2	73.2	73.2	92	70.7	0	2	292	0.00	29.897 
04:05	73.7	73.7	73.7	90	70.6	0	1	292	0.00	29.897 
04:10	74.6	74.6	74.6	87	70.5	1	2	292	0.00	29.897 
04:15	75.1	75.1	75.0	85	70.3	0	2	292	0.00	29.898 
04:20	75.3	75.3	75.4	85	70.5	0	1	292	0.00	29.898 
04:25	75.3	75.3	75.5	84	70.1	0	1	292	0.00	29.898 
04:30	75.4	75.4	75.7	84	70.2	0	1	292	0.00	29.907 
04:35	75.3	75.3	75.5	84	70.1	0	0	---	0.00	29.907 
04:40	75.1	75.1	75.0	85	70.3	0	0	---	0.00	29.907 
04:45	74.7	74.7	74.7	85	69.9	0	0	---	0.00	29.909 
04:50	74.4	74.4	74.4	86	69.9	0	0	---	0.00	29.909 
04:55	74.0	74.0	74.0	87	69.9	0	0	---	0.00	29.909 
05:00	73.7	73.7	73.7	87	69.6	0	0	---	0.00	29.907 
05:05	73.5	73.5	73.5	88	69.7	0	0	---	0.00	29.907 
05:10	73.3	73.3	73.3	88	69.5	0	0	---	0.00	29.907 
05:15	73.3	73.3	73.3	89	69.9	0	0	---	0.00	29.923 
05:20	73.2	73.2	73.2	89	69.8	0	0	---	0.00	29.923 
05:25	73.2	73.2	73.2	89	69.8	0	0	---	0.00	29.923 
05:30	73.0	73.0	73.0	89	69.6	0	0	---	0.00	29.924 
05:35	72.8	72.8	72.8	90	69.7	0	0	---	0.00	29.924 
05:40	72.8	72.8	72.8	90	69.7	0	0	---	0.00	29.924 
05:45	72.7	72.7	72.7	90	69.6	0	0	---	0.00	29.926 
05:50	72.8	72.8	72.8	90	69.7	0	1	292	0.00	29.926 
05:55	73.0	73.0	73.0	90	69.9	0	1	292	0.00	29.926 
06:00	73.0	73.0	73.0	89	69.6	0	1	292	0.00	29.928 
06:05	73.2	73.2	73.2	88	69.4	0	1	292	0.00	29.928 
06:10	73.2	73.2	73.2	88	69.4	0	1	292	0.00	29.928 
06:15	73.3	73.3	73.3	87	69.2	0	1	292	0.00	29.936 
06:20	73.3	73.3	73.3	87	69.2	0	0	---	0.00	29.936 
06:25	73.5	73.5	73.5	86	69.0	0	1	292	0.00	29.936 
06:30	73.7	73.7	73.7	86	69.2	0	2	292	0.00	29.941 
06:35	73.7	73.7	73.7	86	69.2	0	0	---	0.00	29.941 
06:40	73.7	73.7	73.7	86	69.2	0	0	---	0.00	29.941 
06:45	73.5	73.5	73.5	86	69.0	0	1	292	0.00	29.949 
06:50	73.5	73.5	73.5	86	69.0	0	0	---	0.00	29.949 
06:55	73.5	73.5	73.5	86	69.0	0	1	292	0.00	29.949 
07:00	73.5	73.5	73.5	86	69.0	0	0	---	0.00	29.952 
07:05	73.5	73.5	73.5	86	69.0	0	1	292	0.00	29.952 
07:10	73.5	73.5	73.5	85	68.7	0	0	---	0.00	29.952 
07:15	73.7	73.7	73.7	85	68.9	0	1	292	0.00	29.953 
07:20	73.9	73.9	73.9	85	69.1	0	1	292	0.00	29.953 
07:25	74.0	74.0	74.0	84	68.8	0	1	292	0.00	29.953 
07:30	74.4	74.4	74.4	84	69.2	0	0	---	0.00	29.958 
07:35	74.7	74.7	74.7	83	69.2	0	2	292	0.00	29.958 
07:40	75.1	75.1	75.3	83	69.6	0	2	270	0.00	29.958 
07:45	75.6	75.6	76.3	81	69.3	0	2	270	0.00	29.958 
07:50	75.8	75.8	76.6	81	69.5	0	2	270	0.00	29.958 
07:55	76.0	76.0	76.9	81	69.7	0	2	270	0.00	29.958 
08:00	76.3	76.3	77.5	80	69.7	1	3	248	0.00	29.961 
08:05	76.5	76.5	77.9	78	69.1	1	2	248	0.00	29.961 
08:10	76.8	76.8	78.2	80	70.1	1	2	248	0.00	29.961 
08:15	77.2	77.2	79.0	77	69.4	1	2	248	0.00	29.961 
08:20	77.4	77.4	79.3	77	69.6	1	3	248	0.00	29.961 
08:25	77.4	77.4	79.3	77	69.6	1	2	248	0.00	29.961 
08:30	77.4	77.4	79.3	77	69.6	1	2	248	0.00	29.963 
08:35	77.4	77.4	79.3	77	69.6	1	2	248	0.00	29.963 
08:40	77.7	77.7	79.7	77	69.9	1	3	248	0.00	29.963 
08:45	78.1	78.1	80.3	75	69.5	1	2	248	0.00	29.967 
08:50	78.1	78.1	80.3	75	69.5	0	1	248	0.00	29.967 
08:55	78.3	78.3	80.6	75	69.7	0	2	292	0.00	29.967 
09:00	78.3	78.3	80.6	74	69.3	1	2	292	0.00	29.974 
09:05	78.3	78.3	80.6	73	68.9	1	3	270	0.00	29.974 
09:10	78.5	78.5	81.0	75	69.9	0	2	248	0.00	29.974 
09:15	78.8	78.8	81.3	73	69.4	1	3	248	0.00	29.982 
09:20	79.2	79.2	81.9	72	69.4	1	3	248	0.00	29.982 
09:25	79.6	79.6	82.3	70	68.9	1	3	248	0.00	29.982 
09:30	79.8	79.8	82.9	72	69.9	1	3	270	0.00	29.982 
09:35	80.1	80.1	83.2	71	69.8	1	3	248	0.00	29.982 
09:40	80.3	80.3	83.6	71	70.0	1	3	248	0.00	29.982 
09:45	80.3	80.3	83.4	70	69.6	1	2	270	0.00	29.983 
09:50	80.3	80.3	83.6	71	70.0	1	3	225	0.00	29.983 
09:55	80.1	80.1	83.1	70	69.4	1	2	225	0.00	29.983 
10:00	80.1	80.1	83.0	69	69.0	1	2	248	0.00	29.981 
10:05	79.8	79.8	82.6	70	69.1	1	3	270	0.00	29.981 
10:10	80.1	80.1	83.2	71	69.8	1	3	248	0.00	29.981 
10:15	80.7	80.7	84.0	69	69.6	1	2	248	0.00	29.982 
10:20	81.1	81.1	84.6	69	69.9	1	3	292	0.00	29.982 
10:25	81.6	81.6	85.1	67	69.6	1	3	270	0.00	29.982 
10:30	81.8	81.8	85.7	68	70.2	1	3	315	0.00	29.982 
10:35	82.2	82.2	85.7	65	69.2	1	2	270	0.00	29.982 
10:40	82.4	82.4	86.3	66	69.9	1	4	248	0.00	29.982 
10:45	82.6	82.6	86.6	66	70.1	1	3	315	0.00	29.985 
10:50	83.2	83.2	87.5	65	70.2	1	4	248	0.00	29.985 
10:55	84.0	84.0	88.6	64	70.5	1	3	248	0.00	29.985 
11:00	84.3	84.3	88.6	62	69.8	1	2	315	0.00	29.984 
11:05	84.7	84.7	88.7	60	69.2	1	5	315	0.00	29.984 
11:10	84.5	84.5	89.0	62	70.0	2	4	292	0.00	29.984 
11:15	84.5	84.5	88.4	60	69.1	1	4	248	0.00	29.988 
11:20	84.1	84.1	87.7	60	68.7	1	3	248	0.00	29.988 
11:25	84.3	84.3	88.6	62	69.8	1	3	248	0.00	29.988 
11:30	84.7	84.7	87.9	57	67.7	2	5	248	0.00	29.988 
11:35	85.3	85.3	89.2	58	68.8	2	4	270	0.00	29.988 
11:40	85.5	85.5	88.6	55	67.5	2	5	248	0.00	29.988 
11:45	85.3	85.3	88.2	55	67.3	3	5	248	0.00	29.991 
11:50	85.5	85.5	88.6	55	67.5	2	4	270	0.00	29.991 
11:55	85.9	85.9	88.9	54	67.3	2	4	248	0.00	29.991 
12:00	86.1	86.1	89.9	56	68.5	2	4	270	0.00	29.981 
12:05	86.3	86.3	90.6	57	69.2	1	3	248	0.00	29.981 
12:10	86.7	86.7	90.6	55	68.6	1	5	248	0.00	29.981 
12:15	87.2	87.2	90.8	53	67.9	2	5	248	0.00	29.979 
12:20	87.2	87.2	90.8	53	67.9	2	5	248	0.00	29.979 
12:25	87.2	87.2	91.1	54	68.5	2	4	292	0.00	29.979 
12:30	87.4	87.4	91.5	54	68.7	2	7	270	0.00	29.983 
12:35	87.8	87.8	92.2	54	69.0	3	6	270	0.00	29.983 
12:40	87.8	87.8	92.2	54	69.0	1	4	248	0.00	29.983 
12:45	88.0	88.0	92.6	54	69.2	2	4	248	0.00	29.982 
12:50	88.4	88.4	93.3	54	69.6	2	6	225	0.00	29.982 
12:55	88.6	88.6	92.5	51	68.1	2	6	248	0.00	29.982 
13:00	88.2	88.2	92.5	53	68.9	2	4	270	0.00	29.976 
13:05	88.6	88.6	93.7	54	69.8	2	5	270	0.00	29.976 
13:10	88.8	88.8	93.7	53	69.4	3	7	248	0.00	29.976 
13:15	88.6	88.6	93.3	53	69.2	2	6	270	0.00	29.973 
13:20	88.4	88.4	92.9	53	69.1	3	5	248	0.00	29.973 
13:25	88.6	88.6	92.9	52	68.7	2	6	248	0.00	29.973 
13:30	88.2	88.2	92.5	53	68.9	2	4	315	0.00	29.970 
13:35	88.8	88.8	93.7	53	69.4	2	4	248	0.00	29.970 
13:40	89.0	89.0	94.0	53	69.6	1	3	270	0.00	29.970 
13:45	88.4	88.4	92.5	52	68.5	2	4	292	0.00	29.963 
13:50	87.4	87.4	91.5	54	68.7	2	5	315	0.00	29.963 
13:55	86.1	86.1	89.2	54	67.5	3	15	248	0.00	29.963 
14:00	80.5	80.5	81.8	55	62.8	6	16	315	0.00	29.974 
14:05	78.1	78.1	79.7	58	62.1	4	14	315	0.00	29.974 
14:10	76.3	76.3	78.2	63	62.8	4	14	315	0.00	29.974 
14:15	75.4	75.4	77.3	66	63.2	4	10	292	0.00	30.011 
14:20	73.9	73.9	73.9	74	65.1	3	7	315	0.01	30.011 
14:25	71.6	71.6	71.6	81	65.4	2	9	292	0.05	30.011 
14:30	70.1	70.1	70.1	85	65.4	1	4	292	0.04	30.048 
14:35	69.4	69.4	69.4	87	65.4	0	3	292	0.05	30.048 
14:40	68.9	68.9	68.9	88	65.2	0	3	292	0.00	30.048 
14:45	68.6	68.6	68.6	87	64.6	5	15	248	0.00	30.081 
14:50	68.3	68.3	68.3	88	64.6	3	10	68	0.03	30.081 
14:55	68.4	68.4	68.4	86	64.0	3	5	90	0.00	30.081 
15:00	68.4	68.4	68.4	87	64.4	1	4	68	0.01	30.003 
15:05	68.4	68.4	68.4	87	64.4	2	4	90	0.00	30.003 
15:10	68.4	68.4	68.4	88	64.7	2	5	112	0.01	30.003 
15:15	68.6	68.6	68.6	88	64.9	2	5	90	0.00	29.973 
15:20	68.4	68.4	68.4	88	64.7	1	2	112	0.00	29.973 
15:25	68.6	68.6	68.6	86	64.2	3	9	90	0.00	29.973 
15:30	68.6	68.6	68.6	84	63.6	3	10	90	0.00	29.938 
15:35	68.8	68.8	68.8	85	64.1	2	5	90	0.00	29.938 
15:40	68.9	68.9	68.9	84	63.9	2	5	90	0.00	29.938 
15:45	69.1	69.1	69.1	84	64.1	1	3	90	0.00	29.928 
15:50	69.4	69.4	69.4	85	64.7	0	2	158	0.00	29.928 
15:55	69.8	69.8	69.8	84	64.7	0	2	135	0.00	29.928 
16:00	70.6	70.6	70.6	84	65.5	2	4	112	0.00	29.940 
16:05	70.9	70.9	70.9	83	65.5	2	4	90	0.00	29.940 
16:10	70.9	70.9	70.9	83	65.5	1	4	90	0.00	29.940 
16:15	70.9	70.9	70.9	84	65.8	1	4	270	0.00	29.942 
16:20	70.8	70.8	70.8	84	65.7	1	4	270	0.00	29.942 
16:25	70.9	70.9	70.9	84	65.8	0	1	270	0.00	29.942 
16:30	71.3	71.3	71.3	84	66.2	0	1	270	0.00	29.957 
16:35	72.0	72.0	72.0	84	66.9	0	3	270	0.00	29.957 
16:40	72.7	72.7	72.7	80	66.2	1	3	270	0.00	29.957 
16:45	73.0	73.0	73.0	78	65.7	1	3	45	0.00	29.964 
16:50	73.5	73.5	73.5	79	66.6	1	2	270	0.00	29.964 
16:55	73.9	73.9	73.9	76	65.8	1	5	270	0.00	29.964 
17:00	74.4	74.4	74.4	75	65.9	1	3	270	0.00	29.971 
17:05	74.7	74.7	74.7	75	66.2	0	2	292	0.00	29.971 
17:10	74.7	74.7	74.7	72	65.1	1	2	292	0.00	29.971 
17:15	74.4	74.4	74.4	73	65.2	1	3	315	0.00	29.971 
17:20	74.2	74.2	74.2	74	65.4	1	2	315	0.00	29.971 
17:25	74.0	74.0	74.0	75	65.6	0	3	292	0.00	29.971 
17:30	74.4	74.4	74.4	76	66.3	1	2	292	0.00	29.972 
17:35	74.6	74.6	74.6	75	66.1	0	2	292	0.00	29.972 
17:40	74.6	74.6	74.6	76	66.5	0	1	292	0.00	29.972 
17:45	74.9	74.9	74.9	75	66.4	0	2	292	0.00	29.970 
17:50	75.3	75.3	76.7	73	66.0	0	2	292	0.00	29.970 
17:55	75.4	75.4	76.8	73	66.1	1	2	292	0.00	29.970 
18:00	75.6	75.6	77.0	73	66.3	0	2	292	0.00	29.970 
18:05	75.8	75.8	77.3	72	66.1	0	2	292	0.00	29.970 
18:10	76.1	76.1	77.7	72	66.4	0	3	225	0.00	29.970 
18:15	76.5	76.5	78.2	69	65.6	1	3	248	0.00	29.966 
18:20	76.7	76.7	78.4	70	66.2	0	3	248	0.00	29.966 
18:25	76.8	76.8	78.6	69	65.8	1	2	248	0.00	29.966 
18:30	76.8	76.8	78.6	69	65.8	0	2	248	0.00	29.953 
18:35	76.8	76.8	78.6	69	65.8	0	2	248	0.00	29.953 
18:40	77.0	77.0	78.8	68	65.6	0	2	248	0.00	29.953 
18:45	77.0	77.0	78.8	69	66.0	0	2	248	0.00	29.955 
18:50	76.8	76.8	78.6	69	65.8	0	1	248	0.00	29.955 
18:55	76.8	76.8	78.5	70	66.3	0	1	270	0.00	29.955 
19:00	76.8	76.8	78.6	67	65.0	0	2	270	0.00	29.963 
19:05	76.8	76.8	78.6	67	65.0	0	1	315	0.00	29.963 
19:10	76.7	76.7	78.5	66	64.5	0	1	315	0.00	29.963 
19:15	76.5	76.5	78.3	66	64.3	0	2	315	0.00	29.961 
19:20	76.5	76.5	78.3	65	63.8	0	1	292	0.00	29.961 
19:25	76.5	76.5	78.3	65	63.8	0	1	292	0.00	29.961 
19:30	76.5	76.5	78.3	66	64.3	0	1	292	0.00	29.965 
19:35	76.5	76.5	78.3	67	64.7	0	2	292	0.00	29.965 
19:40	76.5	76.5	78.3	67	64.7	0	1	292	0.00	29.965 
19:45	76.5	76.5	78.3	66	64.3	1	2	292	0.00	29.982 
19:50	76.7	76.7	78.5	67	64.9	0	1	292	0.00	29.982 
19:55	76.7	76.7	78.5	67	64.9	0	2	292	0.00	29.982 
20:00	76.7	76.7	78.5	65	64.0	0	1	292	0.00	29.989 
20:05	76.7	76.7	78.5	66	64.5	0	2	292	0.00	29.989 
20:10	76.5	76.5	78.3	66	64.3	0	2	292	0.00	29.989 
20:15	76.5	76.5	78.3	66	64.3	0	1	292	0.00	29.995 
20:20	76.3	76.3	78.1	66	64.1	0	1	292	0.00	29.995 
20:25	76.1	76.1	77.9	66	63.9	0	1	292	0.00	29.995 
20:30	76.0	76.0	77.8	66	63.8	0	1	292	0.00	29.998 
20:35	75.8	75.8	77.6	67	64.0	0	1	292	0.00	29.998 
20:40	75.6	75.6	77.4	68	64.3	0	1	292	0.00	29.998 
20:45	75.4	75.4	77.2	68	64.1	0	2	292	0.00	30.010 
20:50	75.3	75.3	77.1	68	64.0	0	1	315	0.00	30.010 
20:55	75.1	75.1	76.9	69	64.2	0	1	315	0.00	30.010 
21:00	74.9	74.9	74.9	69	64.0	0	1	315	0.00	30.005 
21:05	74.6	74.6	74.6	70	64.2	0	0	---	0.00	30.005 
21:10	74.4	74.4	74.4	71	64.4	0	1	315	0.00	30.005 
21:15	74.0	74.0	74.0	72	64.4	0	0	---	0.00	30.013 
21:20	73.7	73.7	73.7	73	64.5	0	0	---	0.00	30.013 
21:25	73.3	73.3	73.3	72	63.7	0	0	---	0.00	30.013 
21:30	73.2	73.2	73.2	73	64.0	0	0	---	0.00	30.016 
21:35	73.0	73.0	73.0	72	63.4	0	0	---	0.00	30.016 
21:40	73.0	73.0	73.0	73	63.8	0	1	315	0.00	30.016 
21:45	72.8	72.8	72.8	73	63.6	0	0	---	0.00	30.016 
21:50	72.7	72.7	72.7	73	63.5	0	0	---	0.00	30.016 
21:55	72.5	72.5	72.5	73	63.3	0	0	---	0.00	30.016 
22:00	72.3	72.3	72.3	74	63.5	0	0	---	0.00	30.017 
22:05	72.1	72.1	72.1	75	63.7	0	0	---	0.00	30.017 
22:10	71.8	71.8	71.8	76	63.8	0	0	---	0.00	30.017 
22:15	71.5	71.5	71.5	77	63.9	0	0	---	0.00	30.023 
22:20	71.1	71.1	71.1	78	63.9	0	0	---	0.00	30.023 
22:25	70.8	70.8	70.8	78	63.6	0	0	---	0.00	30.023 
22:30	70.6	70.6	70.6	79	63.8	0	0	---	0.01	30.027 
22:35	70.3	70.3	70.3	80	63.8	0	0	---	0.00	30.027 
22:40	70.1	70.1	70.1	81	64.0	0	0	---	0.00	30.027 
22:45	69.9	69.9	69.9	81	63.8	0	0	---	0.00	30.029 
22:50	69.8	69.8	69.8	82	64.0	0	0	---	0.00	30.029 
22:55	69.8	69.8	69.8	82	64.0	0	0	---	0.00	30.029 
23:00	69.6	69.6	69.6	82	63.9	0	0	---	0.00	30.036 
23:05	69.4	69.4	69.4	81	63.3	0	0	---	0.00	30.036 
23:10	69.4	69.4	69.4	82	63.7	0	0	---	0.00	30.036 
23:15	69.3	69.3	69.3	82	63.6	0	0	---	0.00	30.029 
23:20	69.3	69.3	69.3	82	63.6	0	0	---	0.00	30.029 
23:25	69.1	69.1	69.1	82	63.4	0	0	---	0.00	30.029 
23:30	69.1	69.1	69.1	83	63.7	0	0	---	0.00	30.027 
23:35	69.1	69.1	69.1	83	63.7	0	0	---	0.00	30.027 
23:40	68.9	68.9	68.9	83	63.5	0	0	---	0.00	30.027 
23:45	68.9	68.9	68.9	83	63.5	0	0	---	0.00	30.018 
23:50	68.8	68.8	68.8	84	63.8	0	0	---	0.00	30.018 
23:55	68.8	68.8	68.8	84	63.8	0	0	---	0.00	30.018 

CoCoRaHS
IN-AL-39
A2 Web Hosting
Creative Commons License
GoDaddy
Look for:

loaded 2017-10-17 22:24:28 • last modified 2010-11-18 10:43:29
Privacy PolicyDisclaimer
• wx.awcolley.com is powered by PmWiki v.2002016 •
• all content (unless otherwise noted) © 2017 A W Colley